sensor_id;sensor_type;location;lat;lon;timestamp;pressure;altitude;pressure_sealevel;temperature;humidity
59240;BME280;45010;53.640;10.578;2023-03-15T00:02:54;99935.81;;;25.45;32.08
59240;BME280;45010;53.640;10.578;2023-03-15T00:05:54;99903.13;;;25.27;32.20
59240;BME280;45010;53.640;10.578;2023-03-15T00:08:55;99950.53;;;25.47;32.10
59240;BME280;45010;53.640;10.578;2023-03-15T00:11:55;99949.72;;;25.47;31.95
59240;BME280;45010;53.640;10.578;2023-03-15T00:14:55;99955.03;;;25.47;32.05
59240;BME280;45010;53.640;10.578;2023-03-15T00:17:55;99960.94;;;25.49;31.88
59240;BME280;45010;53.640;10.578;2023-03-15T00:20:56;99955.25;;;25.40;31.97
59240;BME280;45010;53.640;10.578;2023-03-15T00:23:57;99974.28;;;25.49;31.92
59240;BME280;45010;53.640;10.578;2023-03-15T00:26:57;99969.75;;;25.49;31.88
59240;BME280;45010;53.640;10.578;2023-03-15T00:29:57;99977.72;;;25.44;32.11
59240;BME280;45010;53.640;10.578;2023-03-15T00:32:58;99988.19;;;25.51;31.82
59240;BME280;45010;53.640;10.578;2023-03-15T00:35:58;99999.66;;;25.51;31.68
59240;BME280;45010;53.640;10.578;2023-03-15T00:38:58;100005.81;;;25.52;32.00
59240;BME280;45010;53.640;10.578;2023-03-15T00:41:59;100000.47;;;25.52;32.07
59240;BME280;45010;53.640;10.578;2023-03-15T00:44:59;100011.66;;;25.49;31.90
59240;BME280;45010;53.640;10.578;2023-03-15T00:47:59;100019.16;;;25.52;31.74
59240;BME280;45010;53.640;10.578;2023-03-15T00:51:11;100016.19;;;25.48;31.70
59240;BME280;45010;53.640;10.578;2023-03-15T00:54:12;100020.72;;;25.48;31.77
59240;BME280;45010;53.640;10.578;2023-03-15T00:57:12;100032.50;;;25.52;31.83
59240;BME280;45010;53.640;10.578;2023-03-15T01:00:20;100028.72;;;25.48;31.84
59240;BME280;45010;53.640;10.578;2023-03-15T01:03:23;100038.63;;;25.52;31.06
59240;BME280;45010;53.640;10.578;2023-03-15T01:06:26;100028.47;;;25.49;31.84
59240;BME280;45010;53.640;10.578;2023-03-15T01:09:26;100031.22;;;25.55;31.76
59240;BME280;45010;53.640;10.578;2023-03-15T01:12:28;100032.84;;;25.56;31.71
59240;BME280;45010;53.640;10.578;2023-03-15T01:15:28;100038.19;;;25.56;31.81
59240;BME280;45010;53.640;10.578;2023-03-15T01:18:29;100038.97;;;25.56;31.73
59240;BME280;45010;53.640;10.578;2023-03-15T01:21:30;100031.41;;;25.48;31.62
59240;BME280;45010;53.640;10.578;2023-03-15T01:24:30;100048.03;;;25.55;31.70
59240;BME280;45010;53.640;10.578;2023-03-15T01:27:31;100046.44;;;25.54;31.78
59240;BME280;45010;53.640;10.578;2023-03-15T01:30:31;100051.78;;;25.54;31.73
59240;BME280;45010;53.640;10.578;2023-03-15T01:33:32;100051.78;;;25.54;31.59
59240;BME280;45010;53.640;10.578;2023-03-15T01:36:32;100052.84;;;25.53;31.61
59240;BME280;45010;53.640;10.578;2023-03-15T01:39:33;100040.97;;;25.44;31.83
59240;BME280;45010;53.640;10.578;2023-03-15T01:42:49;100046.31;;;25.44;31.55
59240;BME280;45010;53.640;10.578;2023-03-15T01:52:25;100061.72;;;25.36;31.29
59240;BME280;45010;53.640;10.578;2023-03-15T01:55:27;100068.44;;;25.39;31.30
59240;BME280;45010;53.640;10.578;2023-03-15T01:58:28;100074.28;;;25.36;31.44
59240;BME280;45010;53.640;10.578;2023-03-15T02:01:29;100078.25;;;25.33;31.38
59240;BME280;45010;53.640;10.578;2023-03-15T02:04:35;100080.34;;;25.31;31.40
59240;BME280;45010;53.640;10.578;2023-03-15T02:07:41;100082.47;;;25.29;31.36
59240;BME280;45010;53.640;10.578;2023-03-15T02:10:51;100074.13;;;25.20;31.42
59240;BME280;45010;53.640;10.578;2023-03-15T02:13:54;100080.75;;;25.18;31.76
59240;BME280;45010;53.640;10.578;2023-03-15T02:16:55;100093.34;;;25.22;31.26
59240;BME280;45010;53.640;10.578;2023-03-15T02:23:19;100094.03;;;25.12;31.52
59240;BME280;45010;53.640;10.578;2023-03-15T02:26:43;100100.50;;;25.17;31.34
59240;BME280;45010;53.640;10.578;2023-03-15T02:29:46;100095.66;;;25.14;31.41
59240;BME280;45010;53.640;10.578;2023-03-15T02:32:46;100104.72;;;25.12;31.55
59240;BME280;45010;53.640;10.578;2023-03-15T02:35:47;100111.13;;;25.11;31.39
59240;BME280;45010;53.640;10.578;2023-03-15T02:38:48;100105.22;;;25.09;31.35
59240;BME280;45010;53.640;10.578;2023-03-15T02:41:53;100097.03;;;24.94;31.50
59240;BME280;45010;53.640;10.578;2023-03-15T02:44:55;100126.28;;;25.06;31.46
59240;BME280;45010;53.640;10.578;2023-03-15T02:47:57;100129.19;;;25.04;31.37
59240;BME280;45010;53.640;10.578;2023-03-15T02:50:57;100132.09;;;25.03;31.83
59240;BME280;45010;53.640;10.578;2023-03-15T02:53:58;100139.53;;;25.01;31.39
59240;BME280;45010;53.640;10.578;2023-03-15T02:57:02;100136.56;;;24.97;31.31
59240;BME280;45010;53.640;10.578;2023-03-15T03:00:03;100149.91;;;24.97;31.44
59240;BME280;45010;53.640;10.578;2023-03-15T03:03:13;100146.66;;;24.95;31.45
59240;BME280;45010;53.640;10.578;2023-03-15T03:06:15;100159.13;;;24.89;31.52
59240;BME280;45010;53.640;10.578;2023-03-15T03:09:15;100173.59;;;24.93;32.05
59240;BME280;45010;53.640;10.578;2023-03-15T03:12:16;100185.31;;;24.92;31.56
59240;BME280;45010;53.640;10.578;2023-03-15T03:15:17;100177.56;;;24.91;31.46
59240;BME280;45010;53.640;10.578;2023-03-15T03:18:17;100182.09;;;24.90;31.23
59240;BME280;45010;53.640;10.578;2023-03-15T03:21:17;100185.81;;;24.89;31.43
59240;BME280;45010;53.640;10.578;2023-03-15T03:24:18;100193.00;;;24.89;31.47
59240;BME280;45010;53.640;10.578;2023-03-15T03:27:18;100202.06;;;24.88;31.50
59240;BME280;45010;53.640;10.578;2023-03-15T03:30:19;100205.78;;;24.87;31.59
59240;BME280;45010;53.640;10.578;2023-03-15T03:33:19;100140.63;;;24.43;31.57
59240;BME280;45010;53.640;10.578;2023-03-15T03:36:20;100217.88;;;24.77;31.36
59240;BME280;45010;53.640;10.578;2023-03-15T03:39:20;100220.53;;;24.77;31.35
59240;BME280;45010;53.640;10.578;2023-03-15T03:42:21;100238.53;;;24.82;31.33
59240;BME280;45010;53.640;10.578;2023-03-15T03:45:21;100233.63;;;24.79;31.44
59240;BME280;45010;53.640;10.578;2023-03-15T03:48:21;100244.91;;;24.81;31.44
59240;BME280;45010;53.640;10.578;2023-03-15T03:51:22;100245.13;;;24.79;31.55
59240;BME280;45010;53.640;10.578;2023-03-15T03:54:22;100256.03;;;24.78;31.51
59240;BME280;45010;53.640;10.578;2023-03-15T03:57:23;100243.34;;;24.68;31.56
59240;BME280;45010;53.640;10.578;2023-03-15T04:00:24;100263.22;;;24.77;31.57
59240;BME280;45010;53.640;10.578;2023-03-15T04:03:24;100270.19;;;24.78;31.50
59240;BME280;45010;53.640;10.578;2023-03-15T04:06:27;100268.53;;;24.77;31.60
59240;BME280;45010;53.640;10.578;2023-03-15T04:09:27;100273.09;;;24.77;31.51
59240;BME280;45010;53.640;10.578;2023-03-15T04:12:28;100281.31;;;24.75;31.46
59240;BME280;45010;53.640;10.578;2023-03-15T04:15:28;100280.78;;;24.73;31.57
59240;BME280;45010;53.640;10.578;2023-03-15T04:18:28;100293.03;;;24.74;31.45
59240;BME280;45010;53.640;10.578;2023-03-15T04:21:29;100290.53;;;24.67;31.56
59240;BME280;45010;53.640;10.578;2023-03-15T04:24:34;100289.56;;;24.74;31.33
59240;BME280;45010;53.640;10.578;2023-03-15T04:27:34;100306.38;;;24.74;31.08
59240;BME280;45010;53.640;10.578;2023-03-15T04:30:35;100311.41;;;24.70;31.41
59240;BME280;45010;53.640;10.578;2023-03-15T04:33:36;100308.50;;;24.72;31.37
59240;BME280;45010;53.640;10.578;2023-03-15T04:36:36;100289.09;;;24.60;31.43
59240;BME280;45010;53.640;10.578;2023-03-15T04:39:36;100315.44;;;24.73;31.54
59240;BME280;45010;53.640;10.578;2023-03-15T04:42:38;100320.78;;;24.73;31.43
59240;BME280;45010;53.640;10.578;2023-03-15T04:45:39;100319.94;;;24.72;31.52
59240;BME280;45010;53.640;10.578;2023-03-15T04:48:39;100314.06;;;24.70;31.59
59240;BME280;45010;53.640;10.578;2023-03-15T04:51:40;100311.16;;;24.72;31.27
59240;BME280;45010;53.640;10.578;2023-03-15T04:54:41;100311.16;;;24.72;31.43
59240;BME280;45010;53.640;10.578;2023-03-15T04:57:41;100317.53;;;24.71;31.52
59240;BME280;45010;53.640;10.578;2023-03-15T05:00:41;100319.16;;;24.72;31.48
59240;BME280;45010;53.640;10.578;2023-03-15T05:03:42;100328.19;;;24.71;31.59
59240;BME280;45010;53.640;10.578;2023-03-15T05:06:42;100338.63;;;24.72;31.60
59240;BME280;45010;53.640;10.578;2023-03-15T05:09:43;100351.94;;;24.72;31.71
59240;BME280;45010;53.640;10.578;2023-03-15T05:12:45;100345.81;;;24.72;31.58
59240;BME280;45010;53.640;10.578;2023-03-15T05:15:45;100347.44;;;24.73;31.27
59240;BME280;45010;53.640;10.578;2023-03-15T05:18:46;100356.50;;;24.72;31.66
59240;BME280;45010;53.640;10.578;2023-03-15T05:21:46;100349.53;;;24.71;31.38
59240;BME280;45010;53.640;10.578;2023-03-15T05:24:46;100351.94;;;24.72;31.38
59240;BME280;45010;53.640;10.578;2023-03-15T05:27:47;100354.84;;;24.71;31.64
59240;BME280;45010;53.640;10.578;2023-03-15T05:30:47;100355.66;;;24.71;31.61
59240;BME280;45010;53.640;10.578;2023-03-15T05:33:47;100351.16;;;24.72;31.48
59240;BME280;45010;53.640;10.578;2023-03-15T05:36:47;100361.81;;;24.72;31.77
59240;BME280;45010;53.640;10.578;2023-03-15T05:39:48;100372.50;;;24.72;31.51
59240;BME280;45010;53.640;10.578;2023-03-15T05:42:48;100370.84;;;24.71;31.50
59240;BME280;45010;53.640;10.578;2023-03-15T05:45:48;100373.28;;;24.72;31.53
59240;BME280;45010;53.640;10.578;2023-03-15T05:48:49;100388.50;;;24.72;31.58
59240;BME280;45010;53.640;10.578;2023-03-15T05:51:50;100401.72;;;24.67;31.66
59240;BME280;45010;53.640;10.578;2023-03-15T05:54:50;100412.22;;;24.74;31.54
59240;BME280;45010;53.640;10.578;2023-03-15T05:57:50;100418.38;;;24.74;31.50
59240;BME280;45010;53.640;10.578;2023-03-15T06:00:51;100423.72;;;24.74;31.60
59240;BME280;45010;53.640;10.578;2023-03-15T06:03:51;100429.84;;;24.75;31.46
59240;BME280;45010;53.640;10.578;2023-03-15T06:06:51;100430.66;;;24.75;31.71
59240;BME280;45010;53.640;10.578;2023-03-15T06:09:52;100433.56;;;24.74;31.74
59240;BME280;45010;53.640;10.578;2023-03-15T06:12:52;100433.34;;;24.75;31.74
59240;BME280;45010;53.640;10.578;2023-03-15T06:15:54;100443.78;;;24.77;31.63
59240;BME280;45010;53.640;10.578;2023-03-15T06:18:54;100460.56;;;24.77;31.80
59240;BME280;45010;53.640;10.578;2023-03-15T06:21:55;100464.28;;;24.76;31.82
59240;BME280;45010;53.640;10.578;2023-03-15T06:24:55;100455.06;;;24.67;31.95
59240;BME280;45010;53.640;10.578;2023-03-15T06:27:55;100479.81;;;24.79;31.79
59240;BME280;45010;53.640;10.578;2023-03-15T06:30:56;100487.81;;;24.79;31.76
59240;BME280;45010;53.640;10.578;2023-03-15T06:33:56;100490.63;;;24.72;31.80
59240;BME280;45010;53.640;10.578;2023-03-15T06:36:56;100492.00;;;24.75;31.93
59240;BME280;45010;53.640;10.578;2023-03-15T06:39:57;100486.91;;;24.74;31.72
59240;BME280;45010;53.640;10.578;2023-03-15T06:42:57;100496.28;;;24.76;31.78
59240;BME280;45010;53.640;10.578;2023-03-15T06:45:57;100492.09;;;24.80;32.02
59240;BME280;45010;53.640;10.578;2023-03-15T06:48:59;100490.94;;;24.76;31.72
59240;BME280;45010;53.640;10.578;2023-03-15T06:51:59;100490.38;;;24.74;31.70
59240;BME280;45010;53.640;10.578;2023-03-15T06:55:00;100506.03;;;24.82;31.74
59240;BME280;45010;53.640;10.578;2023-03-15T06:58:00;100514.03;;;24.82;31.83
59240;BME280;45010;53.640;10.578;2023-03-15T07:01:00;100512.97;;;24.83;31.68
59240;BME280;45010;53.640;10.578;2023-03-15T07:04:01;100519.97;;;24.84;31.77
59240;BME280;45010;53.640;10.578;2023-03-15T07:07:01;100533.84;;;24.87;31.76
59240;BME280;45010;53.640;10.578;2023-03-15T07:10:02;100520.53;;;24.87;31.88
59240;BME280;45010;53.640;10.578;2023-03-15T07:13:02;100535.47;;;24.88;31.83
59240;BME280;45010;53.640;10.578;2023-03-15T07:16:04;100529.09;;;24.89;31.74
59240;BME280;45010;53.640;10.578;2023-03-15T07:19:05;100537.09;;;24.89;31.78
59240;BME280;45010;53.640;10.578;2023-03-15T07:22:05;100538.63;;;24.84;31.83
59240;BME280;45010;53.640;10.578;2023-03-15T07:25:06;100532.00;;;24.87;32.28
59240;BME280;45010;53.640;10.578;2023-03-15T07:28:06;100531.41;;;24.85;32.33
59240;BME280;45010;53.640;10.578;2023-03-15T07:31:07;100538.34;;;24.98;32.44
59240;BME280;45010;53.640;10.578;2023-03-15T07:34:08;100563.50;;;25.02;32.38
59240;BME280;45010;53.640;10.578;2023-03-15T07:37:08;100572.88;;;25.05;32.52
59240;BME280;45010;53.640;10.578;2023-03-15T07:40:09;100582.03;;;25.09;32.37
59240;BME280;45010;53.640;10.578;2023-03-15T07:43:11;100576.34;;;25.05;32.45
59240;BME280;45010;53.640;10.578;2023-03-15T07:46:12;100599.41;;;25.11;32.29
59240;BME280;45010;53.640;10.578;2023-03-15T07:49:12;100616.00;;;25.14;32.30
59240;BME280;45010;53.640;10.578;2023-03-15T07:52:12;100630.97;;;25.15;32.17
59240;BME280;45010;53.640;10.578;2023-03-15T07:55:13;100642.44;;;25.15;32.02
59240;BME280;45010;53.640;10.578;2023-03-15T07:58:13;100647.56;;;25.17;32.09
59240;BME280;45010;53.640;10.578;2023-03-15T08:01:14;100644.88;;;25.17;32.13
59240;BME280;45010;53.640;10.578;2023-03-15T08:04:14;100660.41;;;25.20;32.12
59240;BME280;45010;53.640;10.578;2023-03-15T08:07:15;100657.50;;;25.21;31.83
59240;BME280;45010;53.640;10.578;2023-03-15T08:10:16;100602.38;;;24.86;31.84
59240;BME280;45010;53.640;10.578;2023-03-15T08:13:16;100659.94;;;25.23;31.77
59240;BME280;45010;53.640;10.578;2023-03-15T08:16:17;100655.66;;;25.22;31.52
59240;BME280;45010;53.640;10.578;2023-03-15T08:19:18;100645.44;;;25.19;32.02
59240;BME280;45010;53.640;10.578;2023-03-15T08:22:18;100661.13;;;25.27;32.36
59240;BME280;45010;53.640;10.578;2023-03-15T08:25:22;100654.72;;;25.28;31.89
59240;BME280;45010;53.640;10.578;2023-03-15T08:28:23;100650.75;;;25.31;31.92
59240;BME280;45010;53.640;10.578;2023-03-15T08:31:23;100642.53;;;25.32;31.90
59240;BME280;45010;53.640;10.578;2023-03-15T08:34:24;100637.09;;;25.27;32.02
59240;BME280;45010;53.640;10.578;2023-03-15T08:37:24;100603.59;;;25.07;31.83
59240;BME280;45010;53.640;10.578;2023-03-15T08:40:25;100652.25;;;25.38;31.92
59240;BME280;45010;53.640;10.578;2023-03-15T08:43:25;100631.03;;;25.32;31.85
59240;BME280;45010;53.640;10.578;2023-03-15T08:46:26;100648.53;;;25.39;31.60
59240;BME280;45010;53.640;10.578;2023-03-15T08:49:26;100676.84;;;25.41;31.60
59240;BME280;45010;53.640;10.578;2023-03-15T08:52:27;100668.59;;;25.42;31.64
59240;BME280;45010;53.640;10.578;2023-03-15T08:55:27;100678.47;;;25.42;31.79
59240;BME280;45010;53.640;10.578;2023-03-15T08:58:28;100687.03;;;25.44;31.49
59240;BME280;45010;53.640;10.578;2023-03-15T09:01:28;100686.56;;;25.47;31.64
59240;BME280;45010;53.640;10.578;2023-03-15T09:04:30;100682.41;;;25.39;31.78
59240;BME280;45010;53.640;10.578;2023-03-15T09:07:30;100686.25;;;25.43;31.80
59240;BME280;45010;53.640;10.578;2023-03-15T09:10:31;100685.91;;;25.39;31.61
59240;BME280;45010;53.640;10.578;2023-03-15T09:13:33;100698.63;;;25.49;31.62
59240;BME280;45010;53.640;10.578;2023-03-15T09:16:33;100703.75;;;25.51;31.42
59240;BME280;45010;53.640;10.578;2023-03-15T09:19:34;100699.91;;;25.47;31.52
59240;BME280;45010;53.640;10.578;2023-03-15T09:22:34;100709.69;;;25.53;31.73
59240;BME280;45010;53.640;10.578;2023-03-15T09:25:34;100707.00;;;25.53;31.71
59240;BME280;45010;53.640;10.578;2023-03-15T09:28:36;100717.47;;;25.55;31.42
59240;BME280;45010;53.640;10.578;2023-03-15T09:31:36;100705.81;;;25.49;31.58
59240;BME280;45010;53.640;10.578;2023-03-15T09:34:36;100738.56;;;25.56;31.72
59240;BME280;45010;53.640;10.578;2023-03-15T09:37:37;100736.94;;;25.55;31.42
59240;BME280;45010;53.640;10.578;2023-03-15T09:40:40;100713.28;;;25.47;31.44
59240;BME280;45010;53.640;10.578;2023-03-15T09:50:23;100750.56;;;25.54;31.26
59240;BME280;45010;53.640;10.578;2023-03-15T09:53:32;100743.53;;;25.52;31.31
59240;BME280;45010;53.640;10.578;2023-03-15T09:56:43;100729.75;;;25.44;31.45
59240;BME280;45010;53.640;10.578;2023-03-15T09:59:47;100741.59;;;25.48;31.40
59240;BME280;45010;53.640;10.578;2023-03-15T10:02:55;100752.41;;;25.53;31.37
59240;BME280;45010;53.640;10.578;2023-03-15T10:06:01;100745.41;;;25.52;31.48
59240;BME280;45010;53.640;10.578;2023-03-15T10:09:15;100722.13;;;25.35;31.38
59240;BME280;45010;53.640;10.578;2023-03-15T10:12:28;100741.59;;;25.48;31.29
59240;BME280;45010;53.640;10.578;2023-03-15T10:25:23;100741.59;;;25.48;31.22
59240;BME280;45010;53.640;10.578;2023-03-15T10:28:29;100757.50;;;25.55;31.14
59240;BME280;45010;53.640;10.578;2023-03-15T10:31:36;100746.47;;;25.51;30.98
59240;BME280;45010;53.640;10.578;2023-03-15T10:34:37;100747.63;;;25.55;31.10
59240;BME280;45010;53.640;10.578;2023-03-15T10:37:37;100742.28;;;25.55;30.96
59240;BME280;45010;53.640;10.578;2023-03-15T10:40:44;100746.34;;;25.58;30.93
59240;BME280;45010;53.640;10.578;2023-03-15T10:43:59;100748.78;;;25.59;30.90
59240;BME280;45010;53.640;10.578;2023-03-15T10:47:03;100750.41;;;25.60;31.08
59240;BME280;45010;53.640;10.578;2023-03-15T10:50:12;100751.00;;;25.62;30.70
59240;BME280;45010;53.640;10.578;2023-03-15T10:53:18;100756.34;;;25.62;30.95
59240;BME280;45010;53.640;10.578;2023-03-15T10:56:23;100747.41;;;25.57;30.94
59240;BME280;45010;53.640;10.578;2023-03-15T10:59:30;100759.00;;;25.62;31.14
59240;BME280;45010;53.640;10.578;2023-03-15T11:02:31;100741.50;;;25.55;31.06
59240;BME280;45010;53.640;10.578;2023-03-15T11:05:42;100756.91;;;25.64;31.02
59240;BME280;45010;53.640;10.578;2023-03-15T11:08:43;100753.19;;;25.65;31.57
59240;BME280;45010;53.640;10.578;2023-03-15T11:12:01;100760.13;;;25.67;31.34
59240;BME280;45010;53.640;10.578;2023-03-15T11:15:06;100744.59;;;25.63;31.38
59240;BME280;45010;53.640;10.578;2023-03-15T11:18:25;100760.13;;;25.67;31.33
59240;BME280;45010;53.640;10.578;2023-03-15T11:21:31;100760.63;;;25.63;31.50
59240;BME280;45010;53.640;10.578;2023-03-15T11:24:35;100771.97;;;25.71;31.51
59240;BME280;45010;53.640;10.578;2023-03-15T11:27:36;100766.63;;;25.71;31.66
59240;BME280;45010;53.640;10.578;2023-03-15T11:30:37;100765.97;;;25.63;31.60
59240;BME280;45010;53.640;10.578;2023-03-15T11:37:05;100771.16;;;25.70;31.45
59240;BME280;45010;53.640;10.578;2023-03-15T11:40:15;100770.09;;;25.71;31.55
59240;BME280;45010;53.640;10.578;2023-03-15T11:46:43;100791.25;;;25.73;31.39
59240;BME280;45010;53.640;10.578;2023-03-15T11:49:54;100777.78;;;25.68;31.41
59240;BME280;45010;53.640;10.578;2023-03-15T11:52:55;100771.47;;;25.74;31.45
59240;BME280;45010;53.640;10.578;2023-03-15T11:55:55;100774.75;;;25.76;31.45
59240;BME280;45010;53.640;10.578;2023-03-15T12:05:43;100779.03;;;25.77;31.48
59240;BME280;45010;53.640;10.578;2023-03-15T12:08:49;100778.31;;;25.82;31.40
59240;BME280;45010;53.640;10.578;2023-03-15T12:11:56;100774.25;;;25.79;31.25
59240;BME280;45010;53.640;10.578;2023-03-15T12:18:15;100767.84;;;25.80;31.22
59240;BME280;45010;53.640;10.578;2023-03-15T12:21:22;100783.75;;;25.87;31.40
59240;BME280;45010;53.640;10.578;2023-03-15T12:24:35;100795.28;;;25.87;31.38
59240;BME280;45010;53.640;10.578;2023-03-15T12:27:39;100808.63;;;25.87;31.48
59240;BME280;45010;53.640;10.578;2023-03-15T12:30:43;100808.63;;;25.87;31.08
59240;BME280;45010;53.640;10.578;2023-03-15T12:33:53;100805.97;;;25.87;31.24
59240;BME280;45010;53.640;10.578;2023-03-15T12:37:05;100810.25;;;25.88;30.93
59240;BME280;45010;53.640;10.578;2023-03-15T12:43:34;100801.50;;;25.93;31.30
59240;BME280;45010;53.640;10.578;2023-03-15T12:49:38;100806.63;;;25.95;31.30
59240;BME280;45010;53.640;10.578;2023-03-15T12:52:41;100818.38;;;25.94;31.24
59240;BME280;45010;53.640;10.578;2023-03-15T12:55:42;100798.41;;;25.84;31.03
59240;BME280;45010;53.640;10.578;2023-03-15T12:58:46;100788.66;;;25.78;31.02
59240;BME280;45010;53.640;10.578;2023-03-15T13:01:49;100815.09;;;25.91;30.77
59240;BME280;45010;53.640;10.578;2023-03-15T13:04:58;100810.47;;;25.87;31.02
59240;BME280;45010;53.640;10.578;2023-03-15T13:17:56;100828.34;;;25.86;30.61
59240;BME280;45010;53.640;10.578;2023-03-15T13:21:16;100818.63;;;25.80;30.68
59240;BME280;45010;53.640;10.578;2023-03-15T13:24:29;100831.50;;;25.83;30.95
59240;BME280;45010;53.640;10.578;2023-03-15T13:30:53;100831.97;;;25.80;30.50
59240;BME280;45010;53.640;10.578;2023-03-15T13:33:56;100838.16;;;25.81;30.84
59240;BME280;45010;53.640;10.578;2023-03-15T13:36:58;100845.81;;;25.77;30.74
59240;BME280;45010;53.640;10.578;2023-03-15T13:40:06;100836.09;;;25.71;30.66
59240;BME280;45010;53.640;10.578;2023-03-15T13:43:11;100833.63;;;25.69;30.72
59240;BME280;45010;53.640;10.578;2023-03-15T13:46:12;100844.66;;;25.73;30.80
59240;BME280;45010;53.640;10.578;2023-03-15T13:49:12;100849.44;;;25.71;31.04
59240;BME280;45010;53.640;10.578;2023-03-15T13:52:12;100861.63;;;25.67;31.22
59240;BME280;45010;53.640;10.578;2023-03-15T13:55:15;100864.06;;;25.68;30.51
59240;BME280;45010;53.640;10.578;2023-03-15T13:58:16;100865.34;;;25.65;30.54
59240;BME280;45010;53.640;10.578;2023-03-15T14:01:16;100862.56;;;25.60;30.57
59240;BME280;45010;53.640;10.578;2023-03-15T14:04:17;100878.38;;;25.62;30.74
59240;BME280;45010;53.640;10.578;2023-03-15T14:07:23;100873.25;;;25.60;30.91
59240;BME280;45010;53.640;10.578;2023-03-15T14:13:35;100886.59;;;25.60;31.51
59240;BME280;45010;53.640;10.578;2023-03-15T14:16:46;100878.13;;;25.63;31.35
59240;BME280;45010;53.640;10.578;2023-03-15T14:19:52;100878.72;;;25.65;31.40
59240;BME280;45010;53.640;10.578;2023-03-15T14:22:57;100884.88;;;25.66;31.64
59240;BME280;45010;53.640;10.578;2023-03-15T14:26:17;100897.41;;;25.65;31.42
59240;BME280;45010;53.640;10.578;2023-03-15T14:32:34;100900.31;;;25.64;31.81
59240;BME280;45010;53.640;10.578;2023-03-15T14:38:38;100880.59;;;25.53;31.45
59240;BME280;45010;53.640;10.578;2023-03-15T14:41:38;100904.38;;;25.67;31.57
59240;BME280;45010;53.640;10.578;2023-03-15T14:44:40;100929.47;;;25.65;31.82
59240;BME280;45010;53.640;10.578;2023-03-15T14:47:47;100945.47;;;25.65;31.58
59240;BME280;45010;53.640;10.578;2023-03-15T14:50:48;100950.81;;;25.65;31.64
59240;BME280;45010;53.640;10.578;2023-03-15T14:53:51;100941.75;;;25.67;31.61
59240;BME280;45010;53.640;10.578;2023-03-15T14:56:53;100929.81;;;25.69;31.52
59240;BME280;45010;53.640;10.578;2023-03-15T14:59:53;100913.53;;;25.71;31.67
59240;BME280;45010;53.640;10.578;2023-03-15T15:02:55;100901.91;;;25.65;31.33
59240;BME280;45010;53.640;10.578;2023-03-15T15:05:56;100917.84;;;25.72;31.39
59240;BME280;45010;53.640;10.578;2023-03-15T15:08:58;100900.66;;;25.68;31.45
59240;BME280;45010;53.640;10.578;2023-03-15T15:11:59;100915.38;;;25.70;31.46
59240;BME280;45010;53.640;10.578;2023-03-15T15:15:01;100919.94;;;25.70;31.89
59240;BME280;45010;53.640;10.578;2023-03-15T15:18:01;100927.34;;;25.68;31.56
59240;BME280;45010;53.640;10.578;2023-03-15T15:21:18;100920.38;;;25.67;31.84
59240;BME280;45010;53.640;10.578;2023-03-15T15:24:19;100932.13;;;25.65;31.91
59240;BME280;45010;53.640;10.578;2023-03-15T15:27:21;100924.13;;;25.65;32.00
59240;BME280;45010;53.640;10.578;2023-03-15T15:30:23;100922.94;;;25.61;31.35
59240;BME280;45010;53.640;10.578;2023-03-15T15:33:24;100921.31;;;25.60;31.39
59240;BME280;45010;53.640;10.578;2023-03-15T15:36:27;100917.97;;;25.53;31.56
59240;BME280;45010;53.640;10.578;2023-03-15T15:39:28;100934.69;;;25.60;31.83
59240;BME280;45010;53.640;10.578;2023-03-15T15:42:28;100938.19;;;25.61;31.97
59240;BME280;45010;53.640;10.578;2023-03-15T15:45:29;100933.63;;;25.61;32.24
59240;BME280;45010;53.640;10.578;2023-03-15T15:48:29;100938.19;;;25.61;31.95
59240;BME280;45010;53.640;10.578;2023-03-15T15:51:40;100948.03;;;25.60;31.91
59240;BME280;45010;53.640;10.578;2023-03-15T15:54:42;100957.09;;;25.59;31.77
59240;BME280;45010;53.640;10.578;2023-03-15T15:57:46;100980.09;;;25.60;31.90
59240;BME280;45010;53.640;10.578;2023-03-15T16:00:47;100983.81;;;25.59;31.30
59240;BME280;45010;53.640;10.578;2023-03-15T16:03:47;100973.94;;;25.60;31.82
59240;BME280;45010;53.640;10.578;2023-03-15T16:06:57;100936.38;;;25.43;31.80
59240;BME280;45010;53.640;10.578;2023-03-15T16:09:58;100984.63;;;25.60;31.72
59240;BME280;45010;53.640;10.578;2023-03-15T16:13:01;100981.13;;;25.59;31.87
59240;BME280;45010;53.640;10.578;2023-03-15T16:16:02;100991.81;;;25.59;31.57
59240;BME280;45010;53.640;10.578;2023-03-15T16:19:02;100980.09;;;25.60;31.64
59240;BME280;45010;53.640;10.578;2023-03-15T16:22:02;100976.38;;;25.61;31.70
59240;BME280;45010;53.640;10.578;2023-03-15T16:25:07;100971.84;;;25.62;31.75
59240;BME280;45010;53.640;10.578;2023-03-15T16:28:08;100968.59;;;25.60;31.75
59240;BME280;45010;53.640;10.578;2023-03-15T16:31:10;100990.31;;;25.63;31.88
59240;BME280;45010;53.640;10.578;2023-03-15T16:34:13;100966.59;;;25.55;31.88
59240;BME280;45010;53.640;10.578;2023-03-15T16:37:16;100960.53;;;25.48;32.04
59240;BME280;45010;53.640;10.578;2023-03-15T16:40:19;100980.56;;;25.57;31.84
59240;BME280;45010;53.640;10.578;2023-03-15T16:43:21;100996.47;;;25.64;31.92
59240;BME280;45010;53.640;10.578;2023-03-15T16:46:21;101006.34;;;25.63;31.60
59240;BME280;45010;53.640;10.578;2023-03-15T16:49:21;101010.06;;;25.62;31.91
59240;BME280;45010;53.640;10.578;2023-03-15T16:52:21;101010.06;;;25.62;31.65
59240;BME280;45010;53.640;10.578;2023-03-15T16:55:24;101004.00;;;25.55;31.65